createdAt,value
2022-09-17T00:04:41.167Z,1.40
2022-09-17T00:09:42.787Z,1.30
2022-09-17T00:14:44.290Z,1.20
2022-09-17T00:19:45.681Z,1.30
2022-09-17T00:24:47.107Z,1.58
2022-09-17T00:29:48.877Z,1.58
2022-09-17T00:34:52.219Z,1.40
2022-09-17T00:39:53.643Z,1.77
2022-09-17T00:44:57.230Z,1.38
2022-09-17T00:50:19.944Z,1.33
2022-09-17T00:55:31.680Z,1.50
2022-09-17T01:00:33.188Z,1.40
2022-09-17T01:05:45.889Z,1.40
2022-09-17T01:11:10.852Z,1.30
2022-09-17T01:16:41.218Z,1.60
2022-09-17T01:22:10.152Z,1.33
2022-09-17T01:27:20.472Z,1.08
2022-09-17T01:32:45.643Z,1.17
2022-09-17T01:38:24.140Z,1.30
2022-09-17T01:43:55.692Z,1.45
2022-09-17T01:49:01.480Z,1.40
2022-09-17T01:54:11.288Z,1.40
2022-09-17T01:59:24.893Z,1.50
2022-09-17T02:04:31.609Z,1.63
2022-09-17T02:09:39.640Z,1.63
2022-09-17T02:14:50.522Z,1.55
2022-09-17T02:19:53.704Z,1.70
2022-09-17T02:25:08.418Z,1.55
2022-09-17T02:30:10.316Z,1.65
2022-09-17T02:35:13.932Z,1.67
2022-09-17T02:40:18.205Z,1.58
2022-09-17T02:45:26.397Z,1.60
2022-09-17T02:50:50.187Z,1.80
2022-09-17T02:56:14.169Z,1.40
2022-09-17T03:01:25.529Z,2.00
2022-09-17T03:06:27.406Z,1.90
2022-09-17T03:11:28.937Z,2.00
2022-09-17T03:16:30.477Z,1.77
2022-09-17T03:21:31.960Z,1.77
2022-09-17T03:26:33.396Z,1.60
2022-09-17T03:31:34.853Z,2.10
2022-09-17T03:36:36.340Z,1.60
2022-09-17T03:41:37.938Z,1.60
2022-09-17T03:46:39.453Z,1.58
2022-09-17T03:51:41.188Z,1.75
2022-09-17T03:56:42.632Z,1.45
2022-09-17T04:01:44.147Z,1.50
2022-09-17T04:06:45.639Z,1.48
2022-09-17T04:11:47.047Z,2.03
2022-09-17T04:16:48.482Z,1.90
2022-09-17T04:21:49.880Z,1.80
2022-09-17T04:26:51.329Z,1.80
2022-09-17T04:31:53.100Z,1.92
2022-09-17T04:36:54.490Z,1.80
2022-09-17T04:41:55.982Z,1.98
2022-09-17T04:46:57.455Z,1.73
2022-09-17T04:51:58.916Z,1.75
2022-09-17T04:57:00.749Z,1.60
2022-09-17T05:02:02.239Z,1.70
2022-09-17T05:07:03.838Z,1.95
2022-09-17T05:12:05.366Z,1.90
2022-09-17T05:17:06.759Z,1.90
2022-09-17T05:22:08.168Z,2.00
2022-09-17T05:27:09.594Z,1.50
2022-09-17T05:32:11.005Z,1.50
2022-09-17T05:37:12.678Z,1.80
2022-09-17T05:42:14.073Z,1.55
2022-09-17T05:47:15.499Z,1.60
2022-09-17T05:52:16.894Z,1.98
2022-09-17T05:57:18.348Z,1.45
2022-09-17T06:02:19.820Z,1.73
2022-09-17T06:07:21.283Z,1.60
2022-09-17T06:12:23.461Z,1.40
2022-09-17T06:17:24.853Z,1.63
2022-09-17T06:22:26.362Z,1.73
2022-09-17T06:27:36.680Z,1.55
2022-09-17T06:32:38.109Z,1.73
2022-09-17T06:37:40.853Z,1.83
2022-09-17T06:42:42.557Z,1.77
2022-09-17T06:47:44.010Z,1.75
2022-09-17T06:52:53.587Z,1.60
2022-09-17T06:57:59.166Z,1.77
2022-09-17T07:03:01.207Z,1.80
2022-09-17T07:08:03.349Z,1.70
2022-09-17T07:13:04.900Z,1.60
2022-09-17T07:18:11.538Z,1.60
2022-09-17T07:23:12.935Z,1.88
2022-09-17T07:28:14.380Z,2.05
2022-09-17T07:33:16.782Z,1.90
2022-09-17T07:38:18.245Z,1.67
2022-09-17T07:43:20.068Z,1.60
2022-09-17T07:48:21.617Z,1.60
2022-09-17T07:53:23.100Z,2.20
2022-09-17T07:58:30.066Z,1.52
2022-09-17T08:03:31.499Z,2.17
2022-09-17T08:08:34.142Z,2.20
2022-09-17T08:13:36.506Z,2.08
2022-09-17T08:18:37.932Z,2.00
2022-09-17T08:23:41.461Z,1.80
2022-09-17T08:28:48.036Z,1.90
2022-09-17T08:33:49.668Z,1.90
2022-09-17T08:38:54.186Z,1.80
2022-09-17T08:44:07.771Z,2.38
2022-09-17T08:49:35.810Z,1.70
2022-09-17T08:55:21.839Z,2.07
2022-09-17T09:00:24.492Z,1.73
2022-09-17T09:05:42.826Z,2.00
2022-09-17T09:10:54.129Z,2.00
2022-09-17T09:16:01.055Z,1.95
2022-09-17T09:21:26.908Z,2.10
2022-09-17T09:26:50.321Z,2.70
2022-09-17T09:32:27.543Z,2.38
2022-09-17T09:37:35.363Z,2.10
2022-09-17T09:42:39.708Z,2.38
2022-09-17T09:48:00.918Z,2.35
2022-09-17T09:53:19.152Z,1.90
2022-09-17T09:58:31.071Z,2.47
2022-09-17T10:03:36.203Z,2.60
2022-09-17T10:08:40.244Z,2.58
2022-09-17T10:13:41.693Z,2.20
2022-09-17T10:18:43.716Z,2.55
2022-09-17T10:23:45.951Z,2.70
2022-09-17T10:29:00.435Z,2.30
2022-09-17T10:34:02.673Z,2.33
2022-09-17T10:39:26.056Z,2.33
2022-09-17T10:44:33.707Z,2.22
2022-09-17T10:50:06.404Z,1.98
2022-09-17T10:55:43.993Z,1.58
2022-09-17T11:00:57.229Z,1.58
2022-09-17T11:06:01.461Z,1.67
2022-09-17T11:11:11.243Z,1.70
2022-09-17T11:16:31.456Z,1.77
2022-09-17T11:21:41.773Z,1.80
2022-09-17T11:26:48.737Z,2.00
2022-09-17T11:32:02.213Z,1.60
2022-09-17T11:37:18.406Z,1.77
2022-09-17T11:42:24.805Z,1.58
2022-09-17T11:47:33.657Z,1.70
2022-09-17T11:57:42.358Z,1.40
2022-09-17T12:02:52.682Z,1.73
2022-09-17T12:08:19.637Z,1.30
2022-09-17T12:13:30.009Z,1.20
2022-09-17T12:18:43.341Z,1.48
2022-09-17T12:23:52.052Z,1.25
2022-09-17T12:29:30.860Z,1.55
2022-09-17T12:40:15.244Z,1.50
2022-09-17T12:45:25.567Z,1.30
2022-09-17T12:50:50.285Z,1.27
2022-09-17T12:56:03.571Z,1.10
2022-09-17T13:01:31.330Z,1.10
2022-09-17T13:06:42.616Z,0.90
2022-09-17T13:12:03.364Z,1.10
2022-09-17T13:17:14.337Z,0.88
2022-09-17T13:22:27.697Z,0.80
2022-09-17T13:27:29.481Z,0.75
2022-09-17T13:32:33.853Z,1.33
2022-09-17T13:37:58.516Z,1.40
2022-09-17T13:43:02.684Z,1.42
2022-09-17T13:48:11.839Z,1.50
2022-09-17T13:53:16.053Z,1.38
2022-09-17T13:58:23.308Z,1.58
2022-09-17T14:03:46.405Z,1.30
2022-09-17T14:08:55.487Z,1.30
2022-09-17T14:13:59.997Z,1.70
2022-09-17T14:19:03.189Z,1.23
2022-09-17T14:24:44.844Z,1.40
2022-09-17T14:29:48.715Z,1.38
2022-09-17T14:34:50.350Z,1.40
2022-09-17T14:39:52.503Z,1.92
2022-09-17T14:45:03.715Z,1.60
2022-09-17T14:50:21.558Z,1.25
2022-09-17T14:55:31.102Z,1.10
2022-09-17T15:00:38.200Z,0.88
2022-09-17T15:05:41.016Z,0.95
2022-09-17T15:10:58.310Z,1.10
2022-09-17T15:16:04.933Z,1.30
2022-09-17T15:21:32.480Z,1.10
2022-09-17T15:26:40.789Z,1.00
2022-09-17T15:31:42.332Z,1.27
2022-09-17T15:37:03.861Z,1.30
2022-09-17T15:42:05.408Z,1.38
2022-09-17T15:47:44.652Z,1.33
2022-09-17T15:52:47.440Z,1.45
2022-09-17T15:57:48.891Z,0.80
2022-09-17T16:02:50.519Z,0.80
2022-09-17T16:07:52.155Z,0.90
2022-09-17T16:12:53.641Z,0.88
2022-09-17T16:17:55.988Z,0.90
2022-09-17T16:22:57.407Z,0.90
2022-09-17T16:28:12.506Z,1.30
2022-09-17T16:33:16.202Z,1.30
2022-09-17T16:38:17.640Z,1.27
2022-09-17T16:43:19.339Z,1.70
2022-09-17T16:48:20.790Z,1.88
2022-09-17T16:53:22.199Z,1.95
2022-09-17T16:58:23.847Z,1.52
2022-09-17T17:03:25.570Z,1.20
2022-09-17T17:08:27.130Z,1.20
2022-09-17T17:13:29.690Z,1.50
2022-09-17T17:18:31.506Z,1.30
2022-09-17T17:23:34.728Z,1.40
2022-09-17T17:28:36.698Z,1.27
2022-09-17T17:33:38.181Z,1.50
2022-09-17T17:38:40.752Z,1.30
2022-09-17T17:43:42.299Z,1.52
2022-09-17T17:48:43.883Z,1.10
2022-09-17T17:53:46.150Z,1.90
2022-09-17T17:58:47.986Z,2.20
2022-09-17T18:03:49.761Z,3.65
2022-09-17T18:08:51.173Z,1.73
2022-09-17T18:13:55.237Z,1.40
2022-09-17T18:18:58.258Z,1.40
2022-09-17T18:23:59.744Z,1.73
2022-09-17T18:29:07.052Z,2.20
2022-09-17T18:34:12.209Z,3.53
2022-09-17T18:44:36.952Z,2.40
2022-09-17T18:49:38.396Z,4.05
2022-09-17T18:54:39.791Z,3.40
2022-09-17T18:59:41.476Z,6.32
2022-09-17T19:04:42.894Z,7.05
2022-09-17T19:09:44.370Z,11.27
2022-09-17T19:14:45.768Z,4.85
2022-09-17T19:19:47.238Z,9.90
2022-09-17T19:24:48.635Z,8.95
2022-09-17T19:29:50.296Z,4.70
2022-09-17T19:34:51.724Z,3.00
2022-09-17T19:39:53.168Z,4.60
2022-09-17T19:44:54.626Z,3.67
2022-09-17T19:49:56.219Z,3.33
2022-09-17T19:54:57.666Z,2.33
2022-09-17T19:59:59.055Z,2.50
2022-09-17T20:05:00.502Z,2.50
2022-09-17T20:10:01.926Z,3.03
2022-09-17T20:15:03.721Z,2.55
2022-09-17T20:20:06.529Z,2.83
2022-09-17T20:25:08.437Z,3.30
2022-09-17T20:30:10.743Z,3.08
2022-09-17T20:35:12.275Z,2.97
2022-09-17T20:40:15.832Z,2.60
2022-09-17T20:45:17.382Z,2.60
2022-09-17T20:50:18.820Z,2.55
2022-09-17T20:55:21.511Z,2.38
2022-09-17T21:00:25.928Z,2.92
2022-09-17T21:05:27.352Z,2.40
2022-09-17T21:10:28.748Z,3.38
2022-09-17T21:15:30.193Z,6.45
2022-09-17T21:20:35.882Z,5.07
2022-09-17T21:25:37.278Z,3.83
2022-09-17T21:30:38.677Z,3.30
2022-09-17T21:35:40.262Z,4.35
2022-09-17T21:40:44.020Z,3.05
2022-09-17T21:45:45.649Z,3.10
2022-09-17T21:50:47.049Z,3.08
2022-09-17T21:55:48.519Z,3.03
2022-09-17T22:00:52.801Z,3.25
2022-09-17T22:05:54.227Z,2.35
2022-09-17T22:11:07.223Z,2.83
2022-09-17T22:16:10.173Z,2.50
2022-09-17T22:21:26.712Z,2.85
2022-09-17T22:26:31.652Z,3.58
2022-09-17T22:31:33.506Z,4.10
2022-09-17T22:36:35.080Z,3.38
2022-09-17T22:41:42.835Z,4.18
2022-09-17T22:46:46.473Z,2.92
2022-09-17T22:51:48.477Z,3.03
2022-09-17T22:56:49.946Z,4.60
2022-09-17T23:01:51.381Z,3.00
2022-09-17T23:06:52.890Z,2.50
2022-09-17T23:11:54.299Z,3.65
2022-09-17T23:16:55.794Z,2.50
2022-09-17T23:21:57.193Z,3.30
2022-09-17T23:26:58.645Z,2.58
2022-09-17T23:32:00.078Z,2.35
2022-09-17T23:37:01.535Z,3.20
2022-09-17T23:42:03.066Z,1.90
2022-09-17T23:47:04.637Z,2.45
2022-09-17T23:52:06.052Z,1.88
2022-09-17T23:57:07.448Z,1.92
